Time;durP1;ratioP1;P1;durP2;ratioP2;P2;SDS_P1;SDS_P2;PMS_P1;PMS_P2;Temp;Humidity;BMP_temperature;BMP_pressure;BME280_temperature;BME280_humidity;BME280_pressure;Samples;Min_cycle;Max_cycle;Signal;HPM_P1;HPM_P2
2020/12/30 00:00:52;;;;;;;3.70;3.00;;;6.90;67.90;;;;;;4899916;29;20462;-78
2020/12/30 00:03:19;;;;;;;5.43;3.60;;;6.90;68.00;;;;;;4897947;29;20463;-79
2020/12/30 00:05:45;;;;;;;3.53;2.80;;;7.00;68.00;;;;;;4899633;29;20458;-78
2020/12/30 00:08:12;;;;;;;4.23;3.50;;;6.90;67.90;;;;;;4899917;29;20832;-78
2020/12/30 00:10:39;;;;;;;3.03;2.47;;;7.00;68.20;;;;;;4899798;29;20499;-78
2020/12/30 00:13:06;;;;;;;3.03;2.73;;;6.90;68.30;;;;;;4899910;29;20520;-78
2020/12/30 00:15:33;;;;;;;2.73;2.33;;;7.00;68.30;;;;;;4899851;29;20979;-78
2020/12/30 00:17:59;;;;;;;4.17;3.60;;;7.00;68.40;;;;;;4899612;29;20960;-78
2020/12/30 00:20:26;;;;;;;3.23;2.93;;;7.00;68.30;;;;;;4899749;29;20515;-78
2020/12/30 00:22:52;;;;;;;3.40;3.00;;;7.00;68.90;;;;;;4899146;29;20461;-78
2020/12/30 00:25:19;;;;;;;3.23;2.93;;;7.00;68.10;;;;;;4899534;29;20466;-78
2020/12/30 00:27:47;;;;;;;3.33;3.03;;;7.00;68.00;;;;;;4897657;29;20894;-77
2020/12/30 00:30:15;;;;;;;4.03;3.40;;;7.00;67.90;;;;;;4897586;29;20492;-77
2020/12/30 00:32:43;;;;;;;8.00;3.90;;;7.00;67.80;;;;;;4899151;29;20468;-77
2020/12/30 00:35:10;;;;;;;5.70;3.83;;;7.00;67.70;;;;;;4899522;29;20535;-77
2020/12/30 00:37:36;;;;;;;6.47;3.47;;;6.90;67.70;;;;;;4899262;29;20468;-77
2020/12/30 00:40:04;;;;;;;6.50;4.17;;;6.90;67.70;;;;;;4899221;29;20462;-77
2020/12/30 00:42:31;;;;;;;3.80;3.40;;;6.90;67.80;;;;;;4888413;29;20472;-77
2020/12/30 00:45:00;;;;;;;3.57;3.27;;;6.90;67.80;;;;;;4899380;29;20464;-77
2020/12/30 00:47:26;;;;;;;3.20;2.67;;;6.90;68.00;;;;;;4898835;29;20467;-76
2020/12/30 00:49:53;;;;;;;3.10;2.40;;;6.80;68.00;;;;;;4898878;29;20500;-77
2020/12/30 00:52:20;;;;;;;4.50;3.30;;;6.80;68.10;;;;;;4899235;29;20452;-77
2020/12/30 00:54:46;;;;;;;3.60;2.20;;;6.80;68.10;;;;;;4897524;29;20453;-77
2020/12/30 00:57:13;;;;;;;3.30;3.00;;;6.80;68.10;;;;;;4898908;29;20458;-78
2020/12/30 00:59:40;;;;;;;3.30;2.47;;;6.80;68.10;;;;;;4898888;29;20955;-77
2020/12/30 01:02:07;;;;;;;2.90;2.70;;;6.80;68.10;;;;;;4898729;29;20492;-77
2020/12/30 01:04:34;;;;;;;3.63;3.33;;;6.80;68.20;;;;;;4898992;29;20461;-77
2020/12/30 01:07:00;;;;;;;3.43;3.13;;;6.80;68.20;;;;;;4898678;29;20467;-78
2020/12/30 01:09:27;;;;;;;3.47;3.03;;;6.80;68.30;;;;;;4898832;29;20885;-77
2020/12/30 01:11:55;;;;;;;4.13;2.80;;;6.70;68.20;;;;;;4898746;29;20862;-76
2020/12/30 01:14:21;;;;;;;3.03;2.83;;;6.70;68.10;;;;;;4898354;29;20465;-78
2020/12/30 01:16:49;;;;;;;2.97;2.77;;;6.70;68.00;;;;;;4898464;29;21003;-79
2020/12/30 01:19:17;;;;;;;3.37;3.17;;;6.70;68.10;;;;;;4898776;29;20941;-77
2020/12/30 01:21:45;;;;;;;3.13;2.80;;;6.80;68.20;;;;;;4896663;29;20960;-77
2020/12/30 01:24:11;;;;;;;2.90;2.70;;;6.70;68.10;;;;;;4898773;29;20451;-77
2020/12/30 01:26:39;;;;;;;3.20;2.90;;;6.70;68.00;;;;;;4898578;29;20871;-77
2020/12/30 01:29:06;;;;;;;3.97;3.67;;;6.70;68.00;;;;;;4898355;29;20491;-78
2020/12/30 01:31:34;;;;;;;3.30;2.63;;;6.70;68.00;;;;;;4896680;29;20543;-77
2020/12/30 01:34:02;;;;;;;3.13;2.57;;;6.70;68.30;;;;;;4898313;29;20465;-78
2020/12/30 01:36:30;;;;;;;3.10;2.80;;;6.60;68.30;;;;;;4898282;29;20531;-77
2020/12/30 01:38:56;;;;;;;3.43;3.13;;;6.70;68.40;;;;;;4898419;29;20487;-78
2020/12/30 01:41:24;;;;;;;3.40;2.50;;;6.60;68.30;;;;;;4897849;29;20465;-78
2020/12/30 01:43:58;;;;;;;3.17;2.97;;;6.60;68.20;;;;;;4897912;29;20809;-78
2020/12/30 01:46:35;;;;;;;1.97;1.87;;;6.60;68.40;;;;;;4897552;29;20487;-80
2020/12/30 01:49:04;;;;;;;3.50;2.47;;;6.50;68.40;;;;;;4896196;29;20455;-80
2020/12/30 01:51:33;;;;;;;3.00;2.20;;;6.50;68.70;;;;;;4898181;29;20820;-80
2020/12/30 01:54:01;;;;;;;2.30;2.20;;;6.50;68.80;;;;;;4897728;29;20519;-79
2020/12/30 01:56:31;;;;;;;2.60;2.40;;;6.50;68.70;;;;;;4898117;29;20916;-79
2020/12/30 01:58:58;;;;;;;2.57;2.37;;;6.60;68.90;;;;;;4897742;29;20510;-79
2020/12/30 02:01:28;;;;;;;1.90;1.80;;;6.60;68.80;;;;;;4897719;29;20461;-79
2020/12/30 02:03:57;;;;;;;2.13;1.97;;;6.60;68.40;;;;;;4897898;29;20542;-79
2020/12/30 02:06:24;;;;;;;2.17;1.97;;;6.60;68.60;;;;;;4897678;29;20957;-79
2020/12/30 02:08:52;;;;;;;2.87;2.03;;;6.60;68.70;;;;;;4897927;29;20458;-79
2020/12/30 02:11:24;;;;;;;2.53;2.33;;;6.60;68.80;;;;;;4897473;29;20495;-79
2020/12/30 02:14:00;;;;;;;2.30;2.10;;;6.60;68.60;;;;;;4895762;29;20539;-79
2020/12/30 02:16:27;;;;;;;3.03;2.60;;;6.60;68.70;;;;;;4897603;29;20528;-79
2020/12/30 02:18:53;;;;;;;2.50;2.27;;;6.70;68.90;;;;;;4897696;29;20464;-79
2020/12/30 02:21:20;;;;;;;2.57;2.37;;;6.80;68.70;;;;;;4897856;29;20479;-79
2020/12/30 02:23:49;;;;;;;1.90;1.80;;;6.80;68.60;;;;;;4897271;29;20466;-79
2020/12/30 02:26:16;;;;;;;2.37;2.17;;;6.80;68.30;;;;;;4897423;29;20498;-79
2020/12/30 02:28:43;;;;;;;2.30;2.20;;;6.80;68.20;;;;;;4897338;29;20461;-80
2020/12/30 02:31:09;;;;;;;2.57;2.20;;;6.90;68.30;;;;;;4897100;29;20539;-80
2020/12/30 02:33:36;;;;;;;2.10;2.00;;;6.90;68.20;;;;;;4896055;29;22319;-80
2020/12/30 02:36:03;;;;;;;2.77;2.57;;;6.90;68.10;;;;;;4897733;29;20509;-80
2020/12/30 02:38:29;;;;;;;5.27;2.40;;;6.90;68.00;;;;;;4893939;29;20880;-80
2020/12/30 02:40:59;;;;;;;2.23;2.03;;;6.90;68.10;;;;;;4895505;29;20497;-78
2020/12/30 02:43:27;;;;;;;2.40;2.20;;;6.90;67.80;;;;;;4897235;29;20470;-80
2020/12/30 02:45:55;;;;;;;2.47;2.30;;;6.90;67.70;;;;;;4899263;29;20509;-81
2020/12/30 02:48:21;;;;;;;1.97;1.87;;;6.90;67.80;;;;;;4903457;29;20454;-79
2020/12/30 02:50:48;;;;;;;2.63;2.43;;;6.90;67.80;;;;;;4903056;29;20495;-80
2020/12/30 02:53:15;;;;;;;2.53;2.27;;;6.80;67.70;;;;;;4903520;29;20517;-81
2020/12/30 02:55:41;;;;;;;1.90;1.80;;;6.80;68.00;;;;;;4903261;29;20464;-80
2020/12/30 02:58:08;;;;;;;2.63;2.00;;;6.90;68.10;;;;;;4902830;29;20471;-80
2020/12/30 03:00:35;;;;;;;2.63;2.07;;;6.90;68.20;;;;;;4903032;29;20551;-81
2020/12/30 03:03:03;;;;;;;2.23;2.03;;;6.90;68.40;;;;;;4902813;29;20974;-80
2020/12/30 03:05:29;;;;;;;1.83;1.70;;;6.90;68.10;;;;;;4903049;29;20461;-80
2020/12/30 03:07:56;;;;;;;7.57;1.80;;;6.90;68.10;;;;;;4901420;29;20467;-80
2020/12/30 03:10:23;;;;;;;1.77;1.47;;;6.90;68.10;;;;;;4902866;29;20501;-80
2020/12/30 03:12:49;;;;;;;2.30;2.10;;;6.90;67.90;;;;;;4902626;29;20468;-80
2020/12/30 03:15:16;;;;;;;1.70;1.60;;;6.90;67.90;;;;;;4902790;29;20835;-79
2020/12/30 03:17:43;;;;;;;2.70;1.73;;;7.00;68.10;;;;;;4903174;29;20469;-80
2020/12/30 03:20:10;;;;;;;1.93;1.70;;;6.90;68.00;;;;;;4903080;29;20459;-79
2020/12/30 03:22:36;;;;;;;1.70;1.60;;;7.00;68.20;;;;;;4903142;29;20819;-79
2020/12/30 03:25:03;;;;;;;4.23;2.73;;;6.90;68.20;;;;;;4902944;29;20526;-79
2020/12/30 03:27:29;;;;;;;1.50;1.40;;;7.00;67.90;;;;;;4902677;29;21051;-79
2020/12/30 03:29:56;;;;;;;1.97;1.63;;;6.90;68.00;;;;;;4902394;29;20491;-79
2020/12/30 03:32:22;;;;;;;2.23;1.90;;;6.90;68.10;;;;;;4903178;29;20828;-79
2020/12/30 03:34:50;;;;;;;2.00;1.80;;;7.00;68.10;;;;;;4900653;29;20463;-78
2020/12/30 03:37:16;;;;;;;2.97;2.77;;;7.00;68.00;;;;;;4903053;29;20494;-79
2020/12/30 03:39:43;;;;;;;2.10;2.00;;;7.00;68.20;;;;;;4902144;29;20957;-78
2020/12/30 03:42:10;;;;;;;2.30;1.87;;;6.90;68.30;;;;;;4900516;29;20445;-78
2020/12/30 03:44:36;;;;;;;2.83;2.20;;;6.90;68.20;;;;;;4902569;29;20467;-79
2020/12/30 03:47:06;;;;;;;1.83;1.73;;;6.90;67.90;;;;;;4902892;29;20488;-79
2020/12/30 03:49:32;;;;;;;3.03;1.73;;;6.80;68.00;;;;;;4902269;29;20909;-78
2020/12/30 03:52:00;;;;;;;1.60;1.50;;;6.80;68.20;;;;;;4902771;29;20517;-79
2020/12/30 03:54:27;;;;;;;1.80;1.70;;;6.80;68.10;;;;;;4902240;29;20466;-79
2020/12/30 03:56:54;;;;;;;2.07;1.87;;;6.80;68.10;;;;;;4901285;29;20547;-80
2020/12/30 03:59:20;;;;;;;2.97;2.40;;;6.80;68.20;;;;;;4899635;29;20467;-80
2020/12/30 04:01:47;;;;;;;2.00;1.70;;;6.80;68.30;;;;;;4897911;29;20490;-79
2020/12/30 04:04:14;;;;;;;2.03;1.93;;;6.70;68.20;;;;;;4899732;29;20554;-79
2020/12/30 04:06:40;;;;;;;1.70;1.57;;;6.70;68.30;;;;;;4899721;29;20866;-79
2020/12/30 04:09:08;;;;;;;3.30;2.60;;;6.70;68.40;;;;;;4899766;29;20469;-79
2020/12/30 04:11:35;;;;;;;2.47;2.20;;;6.70;68.30;;;;;;4899613;29;20464;-79
2020/12/30 04:14:01;;;;;;;1.73;1.63;;;6.70;68.40;;;;;;4899385;29;20483;-79
2020/12/30 04:16:28;;;;;;;2.77;2.20;;;6.60;68.40;;;;;;4899448;29;20874;-80
2020/12/30 04:18:55;;;;;;;6.60;2.17;;;6.60;68.70;;;;;;4899610;29;20455;-80
2020/12/30 04:21:22;;;;;;;1.73;1.63;;;6.60;68.90;;;;;;4899396;29;20471;-79
2020/12/30 04:23:48;;;;;;;1.63;1.53;;;6.60;68.90;;;;;;4899256;29;20468;-80
2020/12/30 04:26:16;;;;;;;2.17;1.97;;;6.60;69.60;;;;;;4899051;29;20834;-80
2020/12/30 04:28:43;;;;;;;3.13;2.23;;;6.50;68.80;;;;;;4897710;29;20459;-80
2020/12/30 04:31:11;;;;;;;2.93;2.20;;;6.50;68.80;;;;;;4898941;29;20504;-80
2020/12/30 04:33:38;;;;;;;2.00;1.90;;;6.50;68.60;;;;;;4882946;29;20936;-80
2020/12/30 04:36:05;;;;;;;1.60;1.50;;;6.40;68.70;;;;;;4898688;29;20512;-79
2020/12/30 04:38:32;;;;;;;1.60;1.50;;;6.40;68.80;;;;;;4899702;29;20873;-79
2020/12/30 04:41:00;;;;;;;1.93;1.83;;;6.40;68.90;;;;;;4899077;29;20808;-79
2020/12/30 04:43:29;;;;;;;2.00;1.77;;;6.50;69.00;;;;;;4899060;29;20460;-79
2020/12/30 04:45:56;;;;;;;4.40;2.00;;;6.50;68.70;;;;;;4898456;29;20507;-79
2020/12/30 04:48:25;;;;;;;2.90;1.70;;;6.60;68.40;;;;;;4898439;29;21076;-79
2020/12/30 04:50:51;;;;;;;1.63;1.53;;;6.60;68.30;;;;;;4897737;29;20501;-79
2020/12/30 04:53:21;;;;;;;2.70;1.90;;;6.60;68.40;;;;;;4898893;29;20463;-79
2020/12/30 04:55:49;;;;;;;2.37;2.17;;;6.60;68.70;;;;;;4896679;29;20903;-79
2020/12/30 04:58:18;;;;;;;2.00;1.53;;;6.50;68.40;;;;;;4899027;29;20543;-79
2020/12/30 05:00:46;;;;;;;2.70;2.30;;;6.60;68.50;;;;;;4898429;29;20457;-79
2020/12/30 05:03:14;;;;;;;2.50;2.30;;;6.60;68.50;;;;;;4898798;29;20455;-79
2020/12/30 05:05:41;;;;;;;2.60;1.70;;;6.60;68.30;;;;;;4898426;29;20819;-79
2020/12/30 05:08:11;;;;;;;2.67;2.10;;;6.60;68.30;;;;;;4899037;29;20463;-79
2020/12/30 05:10:39;;;;;;;4.70;1.53;;;6.60;68.40;;;;;;4898396;29;20591;-79
2020/12/30 05:13:07;;;;;;;2.10;1.83;;;6.60;68.20;;;;;;4898562;29;20826;-78
2020/12/30 05:15:33;;;;;;;1.67;1.50;;;6.50;68.10;;;;;;4896896;29;20832;-79
2020/12/30 05:18:05;;;;;;;2.13;1.70;;;6.50;68.10;;;;;;4898160;29;20452;-78
2020/12/30 05:20:35;;;;;;;2.73;1.90;;;6.50;68.30;;;;;;4897790;29;20969;-78
2020/12/30 05:23:03;;;;;;;3.07;1.57;;;6.50;68.40;;;;;;4896114;29;20494;-77
2020/12/30 05:25:30;;;;;;;2.33;2.10;;;6.50;68.20;;;;;;4897958;29;20460;-78
2020/12/30 05:27:58;;;;;;;3.50;1.87;;;6.50;68.20;;;;;;4896946;29;20468;-77
2020/12/30 05:30:25;;;;;;;1.67;1.57;;;6.50;68.10;;;;;;4897478;29;20584;-77
2020/12/30 05:32:53;;;;;;;2.30;2.10;;;6.40;68.00;;;;;;4897282;29;20456;-77
2020/12/30 05:35:21;;;;;;;3.30;2.17;;;6.40;68.20;;;;;;4896672;29;20539;-77
2020/12/30 05:37:48;;;;;;;2.47;2.03;;;6.40;68.30;;;;;;4895255;29;20467;-77
2020/12/30 05:40:22;;;;;;;5.53;3.00;;;6.50;68.50;;;;;;4897502;29;20506;-78
2020/12/30 05:42:50;;;;;;;3.73;1.97;;;6.50;68.50;;;;;;4898038;29;20459;-78
2020/12/30 05:45:19;;;;;;;3.10;2.43;;;6.50;68.60;;;;;;4897949;29;20520;-80
2020/12/30 05:47:45;;;;;;;2.47;2.00;;;6.50;68.80;;;;;;4897244;29;20468;-78
2020/12/30 05:50:12;;;;;;;1.63;1.53;;;6.50;68.60;;;;;;4895942;29;21000;-78
2020/12/30 05:52:40;;;;;;;2.07;1.80;;;6.60;68.70;;;;;;4897533;29;20511;-77
2020/12/30 05:55:09;;;;;;;2.43;1.60;;;6.70;68.60;;;;;;4897748;29;20492;-79
2020/12/30 05:57:37;;;;;;;6.70;1.83;;;6.70;68.50;;;;;;4897642;29;20624;-77
2020/12/30 06:00:07;;;;;;;2.00;1.63;;;6.70;68.30;;;;;;4897936;29;20458;-79
2020/12/30 06:02:38;;;;;;;2.07;1.90;;;6.70;67.90;;;;;;4896975;29;20569;-79
2020/12/30 06:05:10;;;;;;;2.40;1.80;;;6.70;67.90;;;;;;4897602;29;20997;-78
2020/12/30 06:07:42;;;;;;;7.63;1.77;;;6.70;67.90;;;;;;4897114;29;20453;-78
2020/12/30 06:10:10;;;;;;;3.13;1.63;;;6.70;67.80;;;;;;4897900;29;20503;-78
2020/12/30 06:12:50;;;;;;;1.53;1.43;;;6.70;67.60;;;;;;4897318;29;20962;-79
2020/12/30 06:15:18;;;;;;;2.33;1.37;;;6.70;67.90;;;;;;4896641;29;20545;-79
2020/12/30 06:17:53;;;;;;;1.40;1.23;;;6.60;67.90;;;;;;4896031;29;20491;-78
2020/12/30 06:20:22;;;;;;;4.10;1.80;;;6.60;67.80;;;;;;4897215;29;20456;-78
2020/12/30 06:22:57;;;;;;;1.70;1.40;;;6.60;67.50;;;;;;4897237;29;20510;-78
2020/12/30 06:25:25;;;;;;;2.77;1.60;;;6.70;67.40;;;;;;4897754;29;21021;-77
2020/12/30 06:27:53;;;;;;;3.40;1.53;;;6.60;67.40;;;;;;4897160;29;20491;-78
2020/12/30 06:30:20;;;;;;;2.30;2.03;;;6.60;67.80;;;;;;4897042;29;20487;-77
2020/12/30 06:32:47;;;;;;;1.90;1.80;;;6.60;67.80;;;;;;4897060;29;21005;-78
2020/12/30 06:35:24;;;;;;;2.80;1.70;;;6.60;67.60;;;;;;4896922;29;20934;-77
2020/12/30 06:37:50;;;;;;;2.17;1.57;;;6.50;67.50;;;;;;4896355;29;20451;-79
2020/12/30 06:40:23;;;;;;;2.93;1.70;;;6.50;67.70;;;;;;4897187;29;20876;-77
2020/12/30 06:42:58;;;;;;;3.47;1.97;;;6.50;67.50;;;;;;4894973;29;20456;-77
2020/12/30 06:45:52;;;;;;;3.00;2.00;;;6.50;67.40;;;;;;4897031;29;20480;-76
2020/12/30 06:48:20;;;;;;;3.20;2.03;;;6.50;67.20;;;;;;4896941;29;20460;-77
2020/12/30 06:50:48;;;;;;;2.00;1.37;;;6.50;67.40;;;;;;4896826;29;20999;-77
2020/12/30 06:53:32;;;;;;;4.37;1.63;;;6.50;67.40;;;;;;4893592;29;20470;-77
2020/12/30 06:56:01;;;;;;;1.87;1.77;;;6.50;67.40;;;;;;4897685;29;20455;-77
2020/12/30 06:58:49;;;;;;;3.40;1.87;;;6.50;67.30;;;;;;4897355;29;20459;-77
2020/12/30 07:01:17;;;;;;;1.80;1.70;;;6.50;67.60;;;;;;4896548;29;20483;-79
2020/12/30 07:03:45;;;;;;;2.90;1.90;;;6.50;67.70;;;;;;4896713;29;20516;-80
2020/12/30 07:06:29;;;;;;;2.80;2.03;;;6.50;67.90;;;;;;4897184;29;20467;-79
2020/12/30 07:08:57;;;;;;;2.90;2.37;;;6.50;67.80;;;;;;4894857;29;20460;-80
2020/12/30 07:11:55;;;;;;;2.67;2.47;;;6.50;67.50;;;;;;4896512;29;21027;-81
2020/12/30 07:14:23;;;;;;;2.70;2.40;;;6.50;67.50;;;;;;4896589;29;20458;-80
2020/12/30 07:16:52;;;;;;;2.43;2.10;;;6.50;67.80;;;;;;4896936;29;20451;-79
2020/12/30 07:19:20;;;;;;;2.70;2.50;;;6.50;67.80;;;;;;4897063;29;20475;-79
2020/12/30 07:22:05;;;;;;;2.30;2.07;;;6.50;67.70;;;;;;4896080;29;20495;-79
2020/12/30 07:24:39;;;;;;;2.03;1.93;;;6.50;67.70;;;;;;4892203;29;20459;-79
2020/12/30 07:27:08;;;;;;;2.67;2.03;;;6.50;67.90;;;;;;4897329;29;20464;-79
2020/12/30 07:29:35;;;;;;;2.93;2.20;;;6.50;67.80;;;;;;4896514;29;20542;-79
2020/12/30 07:32:03;;;;;;;2.03;1.80;;;6.50;67.80;;;;;;4897653;29;20468;-78
2020/12/30 07:34:31;;;;;;;3.03;2.20;;;6.60;68.60;;;;;;4900793;29;20468;-78
2020/12/30 07:36:58;;;;;;;2.30;2.10;;;6.60;67.70;;;;;;4899126;29;20474;-79
2020/12/30 07:39:28;;;;;;;2.30;2.10;;;6.60;67.50;;;;;;4900430;29;20856;-79
2020/12/30 07:41:56;;;;;;;2.80;1.80;;;6.60;67.50;;;;;;4899057;29;20467;-79
2020/12/30 07:44:23;;;;;;;2.70;2.40;;;6.60;68.20;;;;;;4900155;29;20524;-79
2020/12/30 07:46:51;;;;;;;6.30;2.00;;;6.60;67.60;;;;;;4890445;29;20481;-79
2020/12/30 07:49:20;;;;;;;2.83;2.53;;;6.60;67.80;;;;;;4899694;29;20944;-79
2020/12/30 07:51:54;;;;;;;4.40;2.67;;;6.70;67.80;;;;;;4899057;29;20570;-79
2020/12/30 07:54:22;;;;;;;3.93;2.43;;;6.70;67.50;;;;;;4899919;29;20832;-79
2020/12/30 07:56:50;;;;;;;4.47;2.40;;;6.70;67.40;;;;;;4899873;29;20486;-79
2020/12/30 07:59:21;;;;;;;1.90;1.80;;;6.70;67.00;;;;;;4899494;29;20462;-79
2020/12/30 08:01:56;;;;;;;2.67;2.00;;;6.80;67.10;;;;;;4899603;29;20530;-79
2020/12/30 08:04:22;;;;;;;2.40;2.20;;;6.80;67.10;;;;;;4897651;29;20452;-78
2020/12/30 08:06:49;;;;;;;2.30;2.10;;;6.80;66.80;;;;;;4899619;29;20972;-79
2020/12/30 08:09:17;;;;;;;2.33;2.10;;;6.90;66.80;;;;;;4898446;29;20456;-78
2020/12/30 08:11:50;;;;;;;2.83;2.00;;;6.90;66.80;;;;;;4898759;29;20547;-78
2020/12/30 08:14:26;;;;;;;2.50;2.30;;;7.00;66.60;;;;;;4899155;29;20476;-79
2020/12/30 08:16:58;;;;;;;2.27;2.00;;;7.00;66.40;;;;;;4900095;29;20547;-75
2020/12/30 08:19:39;;;;;;;2.00;1.87;;;7.00;66.40;;;;;;4899225;29;20457;-75
2020/12/30 08:22:15;;;;;;;3.37;2.50;;;7.10;66.30;;;;;;4898671;29;20473;-75
2020/12/30 08:24:44;;;;;;;2.50;2.30;;;7.10;65.90;;;;;;4897751;29;20456;-76
2020/12/30 08:27:13;;;;;;;3.97;2.00;;;7.20;65.70;;;;;;4899571;29;20456;-75
2020/12/30 08:29:41;;;;;;;2.10;1.70;;;7.20;65.70;;;;;;4896923;29;20474;-75
2020/12/30 08:32:18;;;;;;;4.40;2.43;;;7.30;65.30;;;;;;4898993;29;20463;-76
2020/12/30 08:34:49;;;;;;;2.00;1.90;;;7.30;65.20;;;;;;4897833;29;20489;-76
2020/12/30 08:37:22;;;;;;;2.10;1.90;;;7.40;65.30;;;;;;4899566;29;20456;-76
2020/12/30 08:39:55;;;;;;;1.70;1.60;;;7.40;64.60;;;;;;4898682;29;20541;-76
2020/12/30 08:43:01;;;;;;;2.20;2.00;;;7.40;64.60;;;;;;4899347;29;20469;-75
2020/12/30 08:45:29;;;;;;;3.40;2.23;;;7.50;64.40;;;;;;4877480;29;20535;-75
2020/12/30 08:47:59;;;;;;;2.40;2.20;;;7.50;64.30;;;;;;4899382;29;20488;-76
2020/12/30 08:50:27;;;;;;;2.23;2.03;;;7.50;64.30;;;;;;4899438;29;20488;-76
2020/12/30 08:52:55;;;;;;;2.40;1.90;;;7.50;64.10;;;;;;4899393;29;20448;-78
2020/12/30 08:55:22;;;;;;;2.70;2.17;;;7.60;64.00;;;;;;4898712;29;21067;-77
2020/12/30 08:57:50;;;;;;;1.90;1.80;;;7.60;63.90;;;;;;4898482;29;20519;-77
2020/12/30 09:00:18;;;;;;;2.77;2.03;;;7.60;63.70;;;;;;4899013;29;21060;-77
2020/12/30 09:02:46;;;;;;;1.53;1.43;;;7.70;63.80;;;;;;4898986;29;20462;-77
2020/12/30 09:05:13;;;;;;;1.73;1.63;;;7.70;63.60;;;;;;4898954;29;20983;-78
2020/12/30 09:07:40;;;;;;;2.40;2.20;;;7.80;63.50;;;;;;4898942;29;20463;-77
2020/12/30 09:10:09;;;;;;;1.83;1.63;;;7.80;63.30;;;;;;4899033;29;20501;-76
2020/12/30 09:12:36;;;;;;;2.70;1.70;;;7.80;63.20;;;;;;4898963;29;20511;-76
2020/12/30 09:15:05;;;;;;;3.07;1.83;;;7.80;63.10;;;;;;4899235;29;20462;-76
2020/12/30 09:17:32;;;;;;;3.13;1.27;;;7.80;62.80;;;;;;4898998;29;20913;-76
2020/12/30 09:20:14;;;;;;;2.43;1.70;;;7.90;62.80;;;;;;4899063;29;20458;-76
2020/12/30 09:22:42;;;;;;;1.53;1.40;;;7.90;62.90;;;;;;4897311;29;20513;-76
2020/12/30 09:25:24;;;;;;;3.30;1.60;;;8.00;62.80;;;;;;4898951;29;20850;-77
2020/12/30 09:27:50;;;;;;;2.03;1.50;;;8.00;62.50;;;;;;4898709;29;20473;-76
2020/12/30 09:30:20;;;;;;;2.40;1.77;;;8.00;62.10;;;;;;4898439;29;20502;-77
2020/12/30 09:32:47;;;;;;;2.10;1.40;;;7.90;62.00;;;;;;4898545;29;20951;-77
2020/12/30 09:35:17;;;;;;;2.43;1.57;;;8.00;62.20;;;;;;4898636;29;20467;-76
2020/12/30 09:37:50;;;;;;;2.47;2.20;;;8.00;62.20;;;;;;4898632;29;20458;-77
2020/12/30 09:40:17;;;;;;;2.13;1.50;;;8.00;61.70;;;;;;4898459;29;20459;-77
2020/12/30 09:42:47;;;;;;;5.30;1.60;;;8.10;61.90;;;;;;4898316;29;20465;-77
2020/12/30 09:45:15;;;;;;;2.40;2.20;;;8.00;61.60;;;;;;4898345;29;20466;-77
2020/12/30 09:47:46;;;;;;;1.50;1.40;;;8.00;61.30;;;;;;4897986;29;20467;-76
2020/12/30 09:50:30;;;;;;;3.37;1.60;;;8.10;61.80;;;;;;4896349;29;20928;-77
2020/12/30 09:53:00;;;;;;;1.93;1.30;;;8.10;61.70;;;;;;4884145;29;20470;-76
2020/12/30 09:55:27;;;;;;;1.30;1.20;;;8.10;61.90;;;;;;4897240;29;20947;-77
2020/12/30 09:57:53;;;;;;;6.50;2.23;;;8.10;61.80;;;;;;4897604;29;20456;-77
2020/12/30 10:00:20;;;;;;;2.93;1.83;;;8.20;61.60;;;;;;4898109;29;20459;-77
2020/12/30 10:02:46;;;;;;;3.13;1.83;;;8.20;61.50;;;;;;4897669;29;20845;-77
2020/12/30 10:05:13;;;;;;;3.93;2.17;;;8.20;61.40;;;;;;4897943;29;20457;-76
2020/12/30 10:07:40;;;;;;;2.67;1.90;;;8.20;61.40;;;;;;4897725;29;20548;-76
2020/12/30 10:10:07;;;;;;;1.30;1.20;;;8.20;61.30;;;;;;4897795;29;20497;-77
2020/12/30 10:12:37;;;;;;;2.90;1.70;;;8.30;61.10;;;;;;4897109;29;20966;-77
2020/12/30 10:15:04;;;;;;;1.47;1.37;;;8.20;60.60;;;;;;4895460;29;20460;-77
2020/12/30 10:17:31;;;;;;;2.60;1.53;;;8.20;60.80;;;;;;4897462;29;20459;-77
2020/12/30 10:19:57;;;;;;;2.03;1.83;;;8.30;60.90;;;;;;4897707;29;20461;-77
2020/12/30 10:22:24;;;;;;;1.80;1.50;;;8.30;60.90;;;;;;4897468;29;20469;-77
2020/12/30 10:24:50;;;;;;;3.90;1.70;;;8.30;60.80;;;;;;4897570;29;20470;-77
2020/12/30 10:27:18;;;;;;;2.00;1.67;;;8.30;60.70;;;;;;4897708;29;20462;-77
2020/12/30 10:29:45;;;;;;;3.80;2.03;;;8.40;60.70;;;;;;4897233;29;20465;-77
2020/12/30 10:32:12;;;;;;;2.17;1.60;;;8.40;60.60;;;;;;4897328;29;20503;-77
2020/12/30 10:34:38;;;;;;;1.53;1.43;;;8.50;60.30;;;;;;4897390;29;20495;-76
2020/12/30 10:37:06;;;;;;;2.60;1.37;;;8.60;60.60;;;;;;4897637;29;20482;-77
2020/12/30 10:39:32;;;;;;;1.77;1.60;;;8.80;61.10;;;;;;4897344;29;20463;-77
2020/12/30 10:42:00;;;;;;;2.37;2.03;;;9.10;60.50;;;;;;4896530;29;20481;-77
2020/12/30 10:44:29;;;;;;;5.13;1.40;;;9.40;59.40;;;;;;4896854;29;20453;-77
2020/12/30 10:46:55;;;;;;;2.50;1.73;;;9.60;58.30;;;;;;4897043;29;20561;-77
2020/12/30 10:49:22;;;;;;;2.83;1.60;;;9.60;57.60;;;;;;4897147;29;20462;-77
2020/12/30 10:51:50;;;;;;;2.17;1.20;;;9.60;57.60;;;;;;4896392;29;20493;-77
2020/12/30 10:54:17;;;;;;;2.03;1.47;;;9.60;57.00;;;;;;4897184;29;20491;-78
2020/12/30 10:56:46;;;;;;;2.20;1.30;;;9.50;56.30;;;;;;4896866;29;20456;-77
2020/12/30 10:59:13;;;;;;;2.70;1.80;;;9.40;56.70;;;;;;4894923;29;20467;-77
2020/12/30 11:01:41;;;;;;;1.40;1.13;;;9.30;56.90;;;;;;4898087;29;20495;-78
2020/12/30 11:04:07;;;;;;;2.97;1.60;;;9.30;56.80;;;;;;4893723;29;20458;-77
2020/12/30 11:06:34;;;;;;;2.03;0.97;;;9.10;56.90;;;;;;4898076;29;20480;-76
2020/12/30 11:09:01;;;;;;;2.73;1.83;;;9.10;57.40;;;;;;4898594;29;20463;-77
2020/12/30 11:11:27;;;;;;;2.93;1.60;;;9.00;57.60;;;;;;4901010;29;20511;-77
2020/12/30 11:13:54;;;;;;;2.30;1.80;;;9.10;57.70;;;;;;4900686;29;20492;-77
2020/12/30 11:16:20;;;;;;;2.53;1.40;;;9.10;57.70;;;;;;4900618;29;20460;-77
2020/12/30 11:18:48;;;;;;;3.13;1.70;;;9.10;58.10;;;;;;4900335;29;20563;-77
2020/12/30 11:21:14;;;;;;;1.90;1.40;;;9.10;57.90;;;;;;4900592;29;20951;-77
2020/12/30 11:23:41;;;;;;;1.37;1.30;;;9.10;57.80;;;;;;4900480;29;20463;-78
2020/12/30 11:26:07;;;;;;;1.77;1.63;;;9.20;58.00;;;;;;4900236;29;20949;-77
2020/12/30 11:28:34;;;;;;;8.03;1.80;;;9.20;58.00;;;;;;4899472;29;20519;-76
2020/12/30 11:31:01;;;;;;;2.00;1.40;;;9.20;58.10;;;;;;4900394;29;20590;-76
2020/12/30 11:33:27;;;;;;;1.87;1.20;;;9.30;58.20;;;;;;4900302;29;21910;-75
2020/12/30 11:35:55;;;;;;;1.63;1.13;;;9.40;57.80;;;;;;4898109;29;20473;-78
2020/12/30 11:38:21;;;;;;;1.23;1.07;;;9.40;57.90;;;;;;4900557;29;20457;-78
2020/12/30 11:40:48;;;;;;;1.43;1.20;;;9.40;57.80;;;;;;4899673;29;20465;-77
2020/12/30 11:43:15;;;;;;;1.60;1.17;;;9.50;57.90;;;;;;4899553;29;20459;-76
2020/12/30 11:45:41;;;;;;;1.43;0.90;;;9.50;57.80;;;;;;4899905;29;20492;-76
2020/12/30 11:48:08;;;;;;;1.57;1.20;;;9.50;57.90;;;;;;4899657;29;20547;-76
2020/12/30 11:50:35;;;;;;;1.40;1.30;;;9.50;58.20;;;;;;4900194;29;20489;-76
2020/12/30 11:53:03;;;;;;;1.60;1.10;;;9.60;58.20;;;;;;4899502;29;20498;-76
2020/12/30 11:55:30;;;;;;;2.30;1.63;;;9.60;58.00;;;;;;4900020;29;20466;-76
2020/12/30 11:57:56;;;;;;;1.50;1.40;;;9.60;57.90;;;;;;4899853;29;20469;-77
2020/12/30 12:00:23;;;;;;;3.53;1.37;;;9.60;57.90;;;;;;4898944;29;20546;-77
2020/12/30 12:02:49;;;;;;;4.17;1.70;;;9.60;57.90;;;;;;4899019;29;20466;-76
2020/12/30 12:05:16;;;;;;;2.30;1.30;;;9.50;57.90;;;;;;4899811;29;20923;-76
2020/12/30 12:07:42;;;;;;;3.73;1.30;;;9.50;58.20;;;;;;4899457;29;20948;-76
2020/12/30 12:10:11;;;;;;;2.50;1.77;;;9.60;58.30;;;;;;4898205;29;20455;-75
2020/12/30 12:12:38;;;;;;;2.00;1.33;;;9.60;58.00;;;;;;4899016;29;21034;-77
2020/12/30 12:15:06;;;;;;;2.60;2.40;;;9.50;58.20;;;;;;4898944;29;20984;-76
2020/12/30 12:17:33;;;;;;;2.00;1.83;;;9.40;58.30;;;;;;4899200;29;20511;-76
2020/12/30 12:19:59;;;;;;;2.90;1.77;;;9.40;58.50;;;;;;4898602;29;20461;-77
2020/12/30 12:22:26;;;;;;;3.57;1.87;;;9.40;58.70;;;;;;4899118;29;20456;-77
2020/12/30 12:24:53;;;;;;;1.90;1.70;;;9.30;59.20;;;;;;4899481;29;20461;-76
2020/12/30 12:27:20;;;;;;;1.47;1.37;;;9.30;58.70;;;;;;4897639;29;20459;-76
2020/12/30 12:29:49;;;;;;;2.93;2.53;;;9.30;58.60;;;;;;4899262;29;20461;-77
2020/12/30 12:32:17;;;;;;;3.00;1.93;;;9.30;58.90;;;;;;4899469;29;20992;-76
2020/12/30 12:34:45;;;;;;;2.23;2.07;;;9.30;59.20;;;;;;4899003;29;20817;-76
2020/12/30 12:37:12;;;;;;;2.30;2.10;;;9.30;59.20;;;;;;4899701;29;20519;-77
2020/12/30 12:39:43;;;;;;;2.53;2.30;;;9.30;59.20;;;;;;4899277;29;20467;-77
2020/12/30 12:42:10;;;;;;;2.70;2.37;;;9.30;59.20;;;;;;4899362;29;20468;-77
2020/12/30 12:44:38;;;;;;;2.60;2.20;;;9.40;59.30;;;;;;4898903;29;20462;-77
2020/12/30 12:47:05;;;;;;;2.20;2.10;;;9.40;59.00;;;;;;4898557;29;21036;-77
2020/12/30 12:49:32;;;;;;;2.23;1.87;;;9.40;59.00;;;;;;4898302;29;20461;-76
2020/12/30 12:52:00;;;;;;;3.73;3.00;;;9.50;59.00;;;;;;4898733;29;20533;-76
2020/12/30 12:54:27;;;;;;;3.93;2.63;;;9.50;59.10;;;;;;4897602;29;20995;-76
2020/12/30 12:56:58;;;;;;;1.97;1.87;;;9.60;59.30;;;;;;4898784;29;20502;-75
2020/12/30 12:59:42;;;;;;;6.77;2.30;;;9.60;58.90;;;;;;4899327;29;20448;-79
2020/12/30 13:05:36;;;;;;;2.83;2.10;;;9.50;59.00;;;;;;4872913;29;20457;-77
2020/12/30 13:08:03;;;;;;;6.70;2.40;;;9.40;59.10;;;;;;4898652;29;20954;-77